createdAt,value
2022-09-26T00:01:15.375Z,100111.22
2022-09-26T00:03:50.811Z,100108.00
2022-09-26T00:06:19.593Z,100117.00
2022-09-26T00:08:48.342Z,100108.75
2022-09-26T00:11:21.180Z,100111.44
2022-09-26T00:13:51.744Z,100108.84
2022-09-26T00:16:18.531Z,100108.47
2022-09-26T00:18:49.167Z,100106.97
2022-09-26T00:21:16.492Z,100117.78
2022-09-26T00:23:43.999Z,100110.41
2022-09-26T00:26:12.807Z,100108.69
2022-09-26T00:28:40.563Z,100112.59
2022-09-26T00:31:10.693Z,100102.56
2022-09-26T00:33:37.906Z,100109.03
2022-09-26T00:36:05.268Z,100106.06
2022-09-26T00:38:32.947Z,100109.56
2022-09-26T00:41:00.109Z,100109.38
2022-09-26T00:43:41.384Z,100117.22
2022-09-26T00:46:17.143Z,100105.38
2022-09-26T00:48:48.207Z,100104.34
2022-09-26T00:51:15.382Z,100109.19
2022-09-26T00:53:47.059Z,100098.78
2022-09-26T00:56:20.925Z,100090.63
2022-09-26T00:59:00.196Z,100087.78
2022-09-26T01:01:27.508Z,100086.44
2022-09-26T01:03:54.723Z,100086.91
2022-09-26T01:06:22.163Z,100084.41
2022-09-26T01:08:57.261Z,100074.38
2022-09-26T01:11:24.129Z,100072.91
2022-09-26T01:13:52.828Z,100068.56
2022-09-26T01:16:19.822Z,100062.63
2022-09-26T01:18:47.937Z,100061.28
2022-09-26T01:21:17.585Z,100058.50
2022-09-26T01:23:44.273Z,100051.59
2022-09-26T01:26:26.232Z,100047.22
2022-09-26T01:29:08.438Z,100050.59
2022-09-26T01:32:15.539Z,100056.31
2022-09-26T01:34:56.293Z,100048.44
2022-09-26T01:37:49.336Z,100048.56
2022-09-26T01:40:27.646Z,100044.19
2022-09-26T01:43:21.515Z,100043.94
2022-09-26T01:46:03.326Z,100029.63
2022-09-26T01:48:36.197Z,100035.06
2022-09-26T01:51:12.237Z,100032.34
2022-09-26T01:53:51.572Z,100035.16
2022-09-26T01:56:23.155Z,100024.56
2022-09-26T01:58:56.722Z,100024.03
2022-09-26T02:01:28.114Z,100021.31
2022-09-26T02:04:02.543Z,100022.00
2022-09-26T02:06:53.845Z,100024.78
2022-09-26T02:09:29.585Z,100020.84
2022-09-26T02:12:02.105Z,100009.38
2022-09-26T02:14:32.575Z,100013.59
2022-09-26T02:17:09.168Z,100001.59
2022-09-26T02:20:00.734Z,100006.13
2022-09-26T02:22:32.042Z,99996.25
2022-09-26T02:24:58.825Z,99989.56
2022-09-26T02:27:26.873Z,99993.06
2022-09-26T02:29:54.750Z,99984.31
2022-09-26T02:32:28.258Z,99972.91
2022-09-26T02:34:56.581Z,99972.53
2022-09-26T02:37:24.626Z,99974.84
2022-09-26T02:39:53.258Z,99965.03
2022-09-26T02:42:36.641Z,99968.63
2022-09-26T02:45:34.071Z,99955.91
2022-09-26T02:48:14.030Z,99946.22
2022-09-26T02:50:48.203Z,99940.88
2022-09-26T02:53:42.495Z,99924.94
2022-09-26T02:56:27.561Z,99923.25
2022-09-26T02:59:21.596Z,99918.22
2022-09-26T03:02:02.600Z,99906.38
2022-09-26T03:04:29.255Z,99900.94
2022-09-26T03:07:00.758Z,99891.44
2022-09-26T03:09:30.328Z,99888.00
2022-09-26T03:12:00.195Z,99889.47
2022-09-26T03:14:29.131Z,99889.81
2022-09-26T03:16:56.400Z,99877.97
2022-09-26T03:19:32.452Z,99882.66
2022-09-26T03:22:00.025Z,99880.25
2022-09-26T03:24:28.344Z,99874.44
2022-09-26T03:26:56.197Z,99869.94
2022-09-26T03:29:25.191Z,99862.13
2022-09-26T03:31:52.321Z,99862.47
2022-09-26T03:34:19.461Z,99855.09
2022-09-26T03:36:46.334Z,99844.22
2022-09-26T03:39:13.760Z,99841.50
2022-09-26T03:41:43.131Z,99840.25
2022-09-26T03:44:09.884Z,99838.78
2022-09-26T03:46:40.078Z,99841.59
2022-09-26T03:49:07.046Z,99835.81
2022-09-26T03:51:34.044Z,99827.47
2022-09-26T03:54:01.090Z,99818.78
2022-09-26T03:56:28.025Z,99819.16
2022-09-26T03:58:54.855Z,99815.06
2022-09-26T04:01:22.993Z,99814.41
2022-09-26T04:03:51.311Z,99808.75
2022-09-26T04:06:20.540Z,99811.00
2022-09-26T04:08:49.428Z,99799.16
2022-09-26T04:11:19.695Z,99801.13
2022-09-26T04:13:52.046Z,99794.00
2022-09-26T04:16:20.642Z,99794.16
2022-09-26T04:18:47.945Z,99775.53
2022-09-26T04:21:15.699Z,99774.16
2022-09-26T04:23:43.845Z,99776.41
2022-09-26T04:26:14.271Z,99773.88
2022-09-26T04:28:43.234Z,99778.13
2022-09-26T04:31:10.915Z,99777.59
2022-09-26T04:33:39.757Z,99764.28
2022-09-26T04:36:12.378Z,99759.69
2022-09-26T04:38:39.556Z,99750.72
2022-09-26T04:41:14.368Z,99744.13
2022-09-26T04:43:41.952Z,99744.06
2022-09-26T04:46:11.593Z,99729.56
2022-09-26T04:48:38.935Z,99738.09
2022-09-26T04:51:11.559Z,99733.47
2022-09-26T04:53:39.578Z,99723.69
2022-09-26T04:56:09.417Z,99716.25
2022-09-26T04:58:37.954Z,99718.69
2022-09-26T05:01:07.478Z,99716.09
2022-09-26T05:03:36.169Z,99701.28
2022-09-26T05:06:05.944Z,99699.81
2022-09-26T05:08:33.079Z,99699.31
2022-09-26T05:10:59.891Z,99690.28
2022-09-26T05:13:27.417Z,99677.53
2022-09-26T05:15:55.688Z,99679.91
2022-09-26T05:18:26.228Z,99681.50
2022-09-26T05:20:54.395Z,99664.41
2022-09-26T05:23:44.822Z,99658.41
2022-09-26T05:26:20.400Z,99665.22
2022-09-26T05:28:51.123Z,99665.94
2022-09-26T05:31:19.268Z,99658.38
2022-09-26T05:33:46.653Z,99649.41
2022-09-26T05:36:13.895Z,99652.53
2022-09-26T05:38:40.720Z,99659.41
2022-09-26T05:41:07.546Z,99656.69
2022-09-26T05:43:35.122Z,99650.13
2022-09-26T05:46:07.745Z,99650.38
2022-09-26T05:48:35.911Z,99640.41
2022-09-26T05:51:10.951Z,99631.84
2022-09-26T05:53:38.757Z,99633.25
2022-09-26T05:56:06.492Z,99638.72
2022-09-26T05:58:35.186Z,99635.25
2022-09-26T06:01:06.819Z,99626.72
2022-09-26T06:03:35.647Z,99625.00
2022-09-26T06:06:10.343Z,99619.28
2022-09-26T06:08:38.690Z,99612.44
2022-09-26T06:11:30.919Z,99608.16
2022-09-26T06:14:00.735Z,99604.69
2022-09-26T06:16:28.820Z,99608.44
2022-09-26T06:18:55.990Z,99604.13
2022-09-26T06:21:23.672Z,99598.28
2022-09-26T06:23:50.694Z,99599.00
2022-09-26T06:26:26.277Z,99592.84
2022-09-26T06:28:58.159Z,99584.97
2022-09-26T06:31:26.268Z,99586.72
2022-09-26T06:33:54.474Z,99575.84
2022-09-26T06:36:24.664Z,99571.84
2022-09-26T06:38:51.790Z,99572.09
2022-09-26T06:41:19.513Z,99563.38
2022-09-26T06:43:47.415Z,99561.78
2022-09-26T06:46:16.112Z,99558.34
2022-09-26T06:48:43.444Z,99544.22
2022-09-26T06:51:14.294Z,99543.63
2022-09-26T06:53:42.929Z,99543.56
2022-09-26T06:56:09.680Z,99539.38
2022-09-26T06:58:36.564Z,99538.06
2022-09-26T07:01:03.911Z,99541.41
2022-09-26T07:03:31.644Z,99540.72
2022-09-26T07:05:58.736Z,99527.28
2022-09-26T07:08:49.994Z,99521.56
2022-09-26T07:11:35.028Z,99521.69
2022-09-26T07:14:02.104Z,99528.53
2022-09-26T07:16:29.763Z,99519.03
2022-09-26T07:18:57.352Z,99514.91
2022-09-26T07:21:24.043Z,99516.50
2022-09-26T07:23:50.702Z,99521.13
2022-09-26T07:26:17.424Z,99524.56
2022-09-26T07:28:44.855Z,99522.25
2022-09-26T07:31:11.910Z,99520.56
2022-09-26T07:33:40.254Z,99525.06
2022-09-26T07:36:09.813Z,99528.13
2022-09-26T07:38:36.802Z,99533.31
2022-09-26T07:41:03.815Z,99535.41
2022-09-26T07:44:04.603Z,99530.06
2022-09-26T07:46:36.144Z,99546.41
2022-09-26T07:49:21.286Z,99532.91
2022-09-26T07:51:49.672Z,99548.41
2022-09-26T07:54:18.172Z,99550.63
2022-09-26T07:56:45.846Z,99560.84
2022-09-26T07:59:12.651Z,99559.97
2022-09-26T08:01:40.124Z,99562.91
2022-09-26T08:04:12.366Z,99582.22
2022-09-26T08:06:39.247Z,99562.66
2022-09-26T08:09:06.073Z,99552.16
2022-09-26T08:11:33.016Z,99560.22
2022-09-26T08:14:01.739Z,99563.03
2022-09-26T08:16:29.622Z,99567.50
2022-09-26T08:18:58.645Z,99563.47
2022-09-26T08:21:25.504Z,99569.13
2022-09-26T08:23:53.627Z,99569.75
2022-09-26T08:26:24.004Z,99563.91
2022-09-26T08:28:50.937Z,99570.16
2022-09-26T08:31:17.996Z,99566.41
2022-09-26T08:33:44.967Z,99566.56
2022-09-26T08:36:14.237Z,99569.72
2022-09-26T08:38:42.399Z,99555.56
2022-09-26T08:41:46.231Z,99555.81
2022-09-26T08:44:49.214Z,99558.34
2022-09-26T08:47:49.215Z,99546.97
2022-09-26T08:50:32.893Z,99533.34
2022-09-26T08:53:05.568Z,99523.56
2022-09-26T08:55:41.095Z,99518.63
2022-09-26T08:58:31.887Z,99511.28
2022-09-26T09:01:02.858Z,99501.81
2022-09-26T09:03:33.131Z,99482.03
2022-09-26T09:06:14.775Z,99480.78
2022-09-26T09:08:51.336Z,99476.94
2022-09-26T09:11:17.956Z,99466.16
2022-09-26T09:14:04.454Z,99455.75
2022-09-26T09:16:55.847Z,99449.22
2022-09-26T09:19:34.564Z,99445.84
2022-09-26T09:22:29.712Z,99443.09
2022-09-26T09:24:59.762Z,99442.69
2022-09-26T09:27:54.994Z,99442.41
2022-09-26T09:30:34.239Z,99442.41
2022-09-26T09:33:06.487Z,99446.19
2022-09-26T09:35:45.877Z,99452.53
2022-09-26T09:38:20.440Z,99446.69
2022-09-26T09:41:11.382Z,99469.66
2022-09-26T09:43:51.892Z,99471.13
2022-09-26T09:46:25.176Z,99451.78
2022-09-26T09:49:07.699Z,99468.28
2022-09-26T09:51:53.150Z,99476.09
2022-09-26T09:54:43.881Z,99477.97
2022-09-26T09:57:39.337Z,99487.16
2022-09-26T10:00:19.438Z,99511.97
2022-09-26T10:03:15.764Z,99519.91
2022-09-26T10:05:47.935Z,99538.72
2022-09-26T10:08:22.633Z,99539.03
2022-09-26T10:11:08.485Z,99547.59
2022-09-26T10:13:37.619Z,99571.75
2022-09-26T10:16:09.750Z,99565.75
2022-09-26T10:19:05.612Z,99567.94
2022-09-26T10:21:39.412Z,99558.03
2022-09-26T10:24:22.343Z,99573.09
2022-09-26T10:26:50.327Z,99580.88
2022-09-26T10:29:22.800Z,99588.50
2022-09-26T10:31:56.569Z,99591.59
2022-09-26T10:34:27.949Z,99594.38
2022-09-26T10:36:56.227Z,99601.94
2022-09-26T10:39:44.465Z,99606.38
2022-09-26T10:42:23.058Z,99601.38
2022-09-26T10:44:50.802Z,99618.69
2022-09-26T10:47:23.010Z,99612.22
2022-09-26T10:49:59.200Z,99604.34
2022-09-26T10:52:40.657Z,99599.69
2022-09-26T10:55:10.884Z,99608.72
2022-09-26T10:57:51.408Z,99606.75
2022-09-26T11:00:43.195Z,99618.63
2022-09-26T11:03:23.276Z,99614.25
2022-09-26T11:05:59.826Z,99616.28
2022-09-26T11:08:32.603Z,99622.00
2022-09-26T11:11:06.233Z,99616.16
2022-09-26T11:13:47.966Z,99614.03
2022-09-26T11:16:16.261Z,99618.44
2022-09-26T11:18:46.682Z,99623.72
2022-09-26T11:21:29.196Z,99616.69
2022-09-26T11:30:21.046Z,99610.91
2022-09-26T11:32:56.551Z,99608.06
2022-09-26T11:35:58.601Z,99608.94
2022-09-26T11:41:44.045Z,99609.81
2022-09-26T11:44:35.749Z,99616.94
2022-09-26T11:47:24.232Z,99617.50
2022-09-26T11:49:53.915Z,99608.91
2022-09-26T11:52:46.825Z,99611.53
2022-09-26T11:55:31.136Z,99612.44
2022-09-26T11:58:14.895Z,99611.41
2022-09-26T12:01:28.367Z,99610.00
2022-09-26T12:04:26.682Z,99593.72
2022-09-26T12:07:12.421Z,99609.50
2022-09-26T12:10:03.569Z,99603.34
2022-09-26T12:12:47.355Z,99607.91
2022-09-26T12:15:32.942Z,99602.41
2022-09-26T12:18:18.871Z,99594.72
2022-09-26T12:20:53.362Z,99598.34
2022-09-26T12:23:29.292Z,99594.34
2022-09-26T12:26:17.057Z,99597.66
2022-09-26T12:29:02.552Z,99590.84
2022-09-26T12:32:00.452Z,99584.13
2022-09-26T12:34:48.898Z,99581.91
2022-09-26T12:37:33.742Z,99585.41
2022-09-26T12:40:20.891Z,99575.16
2022-09-26T12:43:13.970Z,99570.91
2022-09-26T12:46:01.349Z,99562.03
2022-09-26T12:49:06.819Z,99553.25
2022-09-26T12:51:52.054Z,99560.97
2022-09-26T12:54:33.960Z,99557.47
2022-09-26T12:57:09.131Z,99556.56
2022-09-26T13:00:00.129Z,99568.25
2022-09-26T13:03:02.946Z,99565.13
2022-09-26T13:05:38.062Z,99555.56
2022-09-26T13:08:31.024Z,99559.53
2022-09-26T13:11:18.112Z,99557.25
2022-09-26T13:14:12.375Z,99539.63
2022-09-26T13:17:06.196Z,99539.06
2022-09-26T13:19:35.557Z,99533.38
2022-09-26T13:22:21.305Z,99519.22
2022-09-26T13:25:08.335Z,99520.16
2022-09-26T13:27:46.470Z,99506.16
2022-09-26T13:30:24.513Z,99500.13
2022-09-26T13:33:00.433Z,99484.06
2022-09-26T13:35:29.826Z,99472.28
2022-09-26T13:38:22.302Z,99463.59
2022-09-26T13:41:23.124Z,99451.97
2022-09-26T13:44:06.429Z,99437.78
2022-09-26T13:46:59.237Z,99429.47
2022-09-26T13:49:39.496Z,99421.25
2022-09-26T13:52:27.671Z,99409.41
2022-09-26T13:55:11.219Z,99395.78
2022-09-26T13:58:03.959Z,99373.63
2022-09-26T14:00:31.280Z,99367.00
2022-09-26T14:03:09.473Z,99348.41
2022-09-26T14:05:42.362Z,99340.13
2022-09-26T14:08:43.103Z,99338.25
2022-09-26T14:11:19.189Z,99316.13
2022-09-26T14:14:17.980Z,99306.66
2022-09-26T14:16:49.152Z,99296.19
2022-09-26T14:19:39.636Z,99288.41
2022-09-26T14:22:18.903Z,99270.31
2022-09-26T14:24:47.739Z,99258.16
2022-09-26T14:27:18.878Z,99254.25
2022-09-26T14:29:58.909Z,99235.56
2022-09-26T14:32:41.682Z,99220.88
2022-09-26T14:35:28.209Z,99202.88
2022-09-26T14:38:08.116Z,99185.34
2022-09-26T14:40:37.919Z,99173.00
2022-09-26T14:43:19.169Z,99174.66
2022-09-26T14:45:47.957Z,99161.69
2022-09-26T14:48:28.615Z,99150.47
2022-09-26T14:51:25.067Z,99133.63
2022-09-26T14:54:16.302Z,99126.97
2022-09-26T14:56:47.206Z,99121.38
2022-09-26T14:59:20.794Z,99115.72
2022-09-26T15:01:47.857Z,99122.66
2022-09-26T15:04:27.756Z,99103.47
2022-09-26T15:06:57.223Z,99096.34
2022-09-26T15:09:37.171Z,99089.75
2022-09-26T15:12:22.669Z,99077.34
2022-09-26T15:15:14.224Z,99076.81
2022-09-26T15:17:48.399Z,99058.78
2022-09-26T15:20:19.505Z,99056.22
2022-09-26T15:22:47.854Z,99052.13
2022-09-26T15:25:30.977Z,99029.34
2022-09-26T15:27:59.632Z,99036.97
2022-09-26T15:30:36.057Z,99021.34
2022-09-26T15:33:04.068Z,99017.41
2022-09-26T15:35:32.536Z,99011.13
2022-09-26T15:38:01.252Z,99013.16
2022-09-26T15:40:30.058Z,99005.44
2022-09-26T15:43:03.034Z,98999.66
2022-09-26T15:45:55.450Z,98984.00
2022-09-26T15:48:25.474Z,98972.78
2022-09-26T15:51:15.458Z,98969.69
2022-09-26T15:53:50.019Z,98954.41
2022-09-26T15:56:26.299Z,98949.47
2022-09-26T15:59:00.882Z,98941.16
2022-09-26T16:01:31.284Z,98922.25
2022-09-26T16:04:01.068Z,98918.84
2022-09-26T16:06:41.863Z,98906.44
2022-09-26T16:09:08.571Z,98891.66
2022-09-26T16:11:56.345Z,98884.31
2022-09-26T16:14:32.241Z,98862.25
2022-09-26T16:17:32.575Z,98850.69
2022-09-26T16:20:05.442Z,98839.28
2022-09-26T16:22:45.850Z,98825.50
2022-09-26T16:25:15.612Z,98815.97
2022-09-26T16:27:42.944Z,98804.09
2022-09-26T16:30:23.627Z,98796.94
2022-09-26T16:32:55.252Z,98785.03
2022-09-26T16:35:29.487Z,98770.44
2022-09-26T16:38:00.599Z,98769.53
2022-09-26T16:40:30.207Z,98755.28
2022-09-26T16:43:14.429Z,98746.25
2022-09-26T16:45:50.018Z,98743.53
2022-09-26T16:48:52.402Z,98729.44
2022-09-26T16:51:35.284Z,98719.25
2022-09-26T16:54:20.614Z,98709.22
2022-09-26T16:56:51.629Z,98703.63
2022-09-26T16:59:26.816Z,98684.75
2022-09-26T17:01:56.467Z,98688.16
2022-09-26T17:04:32.589Z,98662.50
2022-09-26T17:07:01.327Z,98665.91
2022-09-26T17:09:30.815Z,98660.28
2022-09-26T17:12:03.909Z,98657.22
2022-09-26T17:14:40.109Z,98657.22
2022-09-26T17:17:14.256Z,98629.88
2022-09-26T17:19:43.562Z,98644.84
2022-09-26T17:22:14.735Z,98623.44
2022-09-26T17:24:42.787Z,98624.09
2022-09-26T17:27:22.784Z,98613.25
2022-09-26T17:29:52.061Z,98609.31
2022-09-26T17:32:28.313Z,98589.13
2022-09-26T17:35:03.424Z,98584.84
2022-09-26T17:37:31.660Z,98566.50
2022-09-26T17:39:58.448Z,98574.66
2022-09-26T17:42:25.600Z,98569.06
2022-09-26T17:44:52.490Z,98559.38
2022-09-26T17:50:25.563Z,98550.19
2022-09-26T17:52:53.735Z,98545.44
2022-09-26T17:55:22.962Z,98545.44
2022-09-26T17:57:50.586Z,98541.69
2022-09-26T18:00:19.448Z,98535.59
2022-09-26T18:02:49.414Z,98505.34
2022-09-26T18:05:22.662Z,98508.91
2022-09-26T18:07:53.773Z,98509.63
2022-09-26T18:10:23.809Z,98501.13
2022-09-26T18:12:57.328Z,98486.69
2022-09-26T18:15:25.677Z,98488.53
2022-09-26T18:17:53.305Z,98483.25
2022-09-26T18:20:23.727Z,98481.22
2022-09-26T18:22:52.303Z,98480.00
2022-09-26T18:25:22.994Z,98465.91
2022-09-26T18:27:53.639Z,98472.72
2022-09-26T18:30:22.621Z,98472.22
2022-09-26T18:32:56.635Z,98470.00
2022-09-26T18:35:28.017Z,98467.13
2022-09-26T18:37:56.447Z,98457.97
2022-09-26T18:40:26.627Z,98461.16
2022-09-26T18:42:55.269Z,98456.09
2022-09-26T18:45:34.542Z,98446.88
2022-09-26T18:48:07.719Z,98433.63
2022-09-26T18:50:37.502Z,98432.84
2022-09-26T18:53:11.205Z,98430.59
2022-09-26T18:55:56.461Z,98426.84
2022-09-26T18:58:27.742Z,98426.66
2022-09-26T19:00:57.167Z,98425.13
2022-09-26T19:03:27.159Z,98409.19
2022-09-26T19:06:02.394Z,98413.25
2022-09-26T19:08:33.745Z,98408.81
2022-09-26T19:11:14.835Z,98406.78
2022-09-26T19:13:48.350Z,98404.56
2022-09-26T19:16:17.366Z,98395.22
2022-09-26T19:18:45.484Z,98400.97
2022-09-26T19:21:24.152Z,98398.31
2022-09-26T19:23:52.212Z,98397.16
2022-09-26T19:26:41.665Z,98389.78
2022-09-26T19:29:15.526Z,98387.59
2022-09-26T19:31:43.714Z,98380.63
2022-09-26T19:34:15.234Z,98382.97
2022-09-26T19:36:42.411Z,98375.03
2022-09-26T19:39:14.030Z,98375.53
2022-09-26T19:41:41.077Z,98372.81
2022-09-26T19:44:08.043Z,98371.09
2022-09-26T19:46:37.547Z,98372.09
2022-09-26T19:49:18.282Z,98369.75
2022-09-26T19:51:45.929Z,98360.72
2022-09-26T19:54:19.575Z,98360.56
2022-09-26T19:56:47.987Z,98352.41
2022-09-26T19:59:17.352Z,98353.78
2022-09-26T20:01:46.577Z,98353.38
2022-09-26T20:04:19.208Z,98348.66
2022-09-26T20:06:47.371Z,98357.47
2022-09-26T20:09:17.418Z,98351.72
2022-09-26T20:11:45.880Z,98343.69
2022-09-26T20:14:26.278Z,98346.28
2022-09-26T20:16:56.933Z,98347.31
2022-09-26T20:19:31.825Z,98352.75
2022-09-26T20:22:02.113Z,98373.13
2022-09-26T20:24:32.017Z,98281.28
2022-09-26T20:27:02.161Z,98295.63
2022-09-26T20:29:30.056Z,98292.09
2022-09-26T20:31:58.216Z,98294.13
2022-09-26T20:34:25.802Z,98288.22
2022-09-26T20:36:53.555Z,98290.19
2022-09-26T20:39:26.880Z,98285.88
2022-09-26T20:41:56.726Z,98281.75
2022-09-26T20:44:28.859Z,98276.81
2022-09-26T20:47:02.242Z,98276.22
2022-09-26T20:49:44.350Z,98278.28
2022-09-26T20:52:22.078Z,98268.53
2022-09-26T20:54:50.102Z,98263.09
2022-09-26T20:57:19.918Z,98264.00
2022-09-26T20:59:48.206Z,98264.38
2022-09-26T21:02:30.190Z,98264.84
2022-09-26T21:05:03.156Z,98253.25
2022-09-26T21:07:33.388Z,98260.72
2022-09-26T21:10:00.648Z,98257.44
2022-09-26T21:12:27.820Z,98260.94
2022-09-26T21:14:54.583Z,98250.06
2022-09-26T21:17:27.398Z,98244.13
2022-09-26T21:19:56.011Z,98248.06
2022-09-26T21:22:27.562Z,98243.84
2022-09-26T21:24:55.880Z,98244.66
2022-09-26T21:27:24.148Z,98238.38
2022-09-26T21:29:53.416Z,98235.06
2022-09-26T21:32:23.310Z,98237.59
2022-09-26T21:35:04.107Z,98220.81
2022-09-26T21:37:31.677Z,98227.22
2022-09-26T21:39:59.271Z,98222.06
2022-09-26T21:42:26.357Z,98222.44
2022-09-26T21:44:59.680Z,98213.25
2022-09-26T21:47:28.691Z,98211.13
2022-09-26T21:49:57.822Z,98199.75
2022-09-26T21:52:42.011Z,98205.75
2022-09-26T21:55:16.426Z,98201.94
2022-09-26T21:57:47.613Z,98196.06
2022-09-26T22:00:15.762Z,98188.78
2022-09-26T22:02:43.809Z,98189.38
2022-09-26T22:05:12.283Z,98193.72
2022-09-26T22:07:41.045Z,98190.75
2022-09-26T22:10:11.086Z,98189.16
2022-09-26T22:12:38.826Z,98188.28
2022-09-26T22:15:07.181Z,98180.34
2022-09-26T22:17:34.767Z,98181.66
2022-09-26T22:20:02.175Z,98182.75
2022-09-26T22:22:29.909Z,98183.50
2022-09-26T22:25:02.445Z,98174.16
2022-09-26T22:27:30.259Z,98171.59
2022-09-26T22:29:58.167Z,98180.06
2022-09-26T22:36:13.658Z,98162.19
2022-09-26T22:38:40.876Z,98167.25
2022-09-26T22:41:08.424Z,98166.22
2022-09-26T22:43:36.929Z,98162.63
2022-09-26T22:46:15.059Z,98167.09
2022-09-26T22:48:46.224Z,98163.94
2022-09-26T22:51:14.729Z,98163.41
2022-09-26T22:53:42.520Z,98158.72
2022-09-26T22:56:12.867Z,98165.47
2022-09-26T22:58:43.174Z,98158.22
2022-09-26T23:01:18.213Z,98161.22
2022-09-26T23:03:46.026Z,98163.41
2022-09-26T23:06:14.683Z,98156.75
2022-09-26T23:08:42.878Z,98165.72
2022-09-26T23:11:13.259Z,98161.97
2022-09-26T23:13:42.545Z,98166.13
2022-09-26T23:16:17.920Z,98165.78
2022-09-26T23:18:45.935Z,98165.94
2022-09-26T23:21:13.910Z,98162.69
2022-09-26T23:23:44.113Z,98156.31
2022-09-26T23:26:17.261Z,98159.38
2022-09-26T23:28:45.280Z,98155.72
2022-09-26T23:31:13.182Z,98150.03
2022-09-26T23:33:41.200Z,98143.81
2022-09-26T23:36:09.158Z,98150.88
2022-09-26T23:38:39.166Z,98148.06
2022-09-26T23:41:08.141Z,98144.41
2022-09-26T23:43:35.708Z,98149.75
2022-09-26T23:46:03.460Z,98140.72
2022-09-26T23:48:30.822Z,98147.19
2022-09-26T23:50:58.334Z,98147.94
2022-09-26T23:53:25.627Z,98144.31
2022-09-26T23:55:53.724Z,98139.03
2022-09-26T23:58:21.025Z,98139.31
